sensor_id;sensor_type;location;lat;lon;timestamp;P1;durP1;ratioP1;P2;durP2;ratioP2
140;SDS011;65;48.778;9.160;2024-02-14T00:01:21;4.65;;;1.80;;
140;SDS011;65;48.778;9.160;2024-02-14T00:04:07;4.40;;;1.90;;
140;SDS011;65;48.778;9.160;2024-02-14T00:06:53;2.47;;;1.15;;
140;SDS011;65;48.778;9.160;2024-02-14T00:09:39;2.58;;;1.45;;
140;SDS011;65;48.778;9.160;2024-02-14T00:12:24;2.22;;;1.30;;
140;SDS011;65;48.778;9.160;2024-02-14T00:15:10;5.10;;;1.20;;
140;SDS011;65;48.778;9.160;2024-02-14T00:17:56;4.93;;;1.60;;
140;SDS011;65;48.778;9.160;2024-02-14T00:20:42;5.65;;;1.92;;
140;SDS011;65;48.778;9.160;2024-02-14T00:23:28;3.45;;;1.98;;
140;SDS011;65;48.778;9.160;2024-02-14T00:26:13;3.38;;;1.65;;
140;SDS011;65;48.778;9.160;2024-02-14T00:28:59;2.67;;;1.38;;
140;SDS011;65;48.778;9.160;2024-02-14T00:31:45;3.13;;;1.48;;
140;SDS011;65;48.778;9.160;2024-02-14T00:34:30;2.65;;;1.20;;
140;SDS011;65;48.778;9.160;2024-02-14T00:37:16;3.20;;;1.67;;
140;SDS011;65;48.778;9.160;2024-02-14T00:40:02;3.92;;;1.30;;
140;SDS011;65;48.778;9.160;2024-02-14T00:42:48;2.80;;;1.50;;
140;SDS011;65;48.778;9.160;2024-02-14T00:45:35;5.53;;;1.70;;
140;SDS011;65;48.778;9.160;2024-02-14T00:48:23;2.72;;;1.52;;
140;SDS011;65;48.778;9.160;2024-02-14T00:51:09;2.40;;;1.30;;
140;SDS011;65;48.778;9.160;2024-02-14T00:53:54;5.57;;;1.23;;
140;SDS011;65;48.778;9.160;2024-02-14T00:56:40;3.22;;;1.50;;
140;SDS011;65;48.778;9.160;2024-02-14T00:59:26;2.95;;;1.42;;
140;SDS011;65;48.778;9.160;2024-02-14T01:02:13;2.83;;;1.33;;
140;SDS011;65;48.778;9.160;2024-02-14T01:04:58;3.03;;;1.30;;
140;SDS011;65;48.778;9.160;2024-02-14T01:07:46;2.60;;;1.48;;
140;SDS011;65;48.778;9.160;2024-02-14T01:10:31;3.60;;;1.40;;
140;SDS011;65;48.778;9.160;2024-02-14T01:13:18;6.82;;;1.67;;
140;SDS011;65;48.778;9.160;2024-02-14T01:16:04;3.28;;;1.45;;
140;SDS011;65;48.778;9.160;2024-02-14T01:18:50;5.15;;;1.80;;
140;SDS011;65;48.778;9.160;2024-02-14T01:21:36;3.17;;;1.50;;
140;SDS011;65;48.778;9.160;2024-02-14T01:24:21;2.95;;;1.60;;
140;SDS011;65;48.778;9.160;2024-02-14T01:27:07;2.17;;;1.30;;
140;SDS011;65;48.778;9.160;2024-02-14T01:29:53;2.88;;;1.20;;
140;SDS011;65;48.778;9.160;2024-02-14T01:32:40;6.03;;;1.17;;
140;SDS011;65;48.778;9.160;2024-02-14T01:35:26;4.18;;;1.55;;
140;SDS011;65;48.778;9.160;2024-02-14T01:38:12;1.63;;;1.20;;
140;SDS011;65;48.778;9.160;2024-02-14T01:40:58;3.10;;;1.55;;
140;SDS011;65;48.778;9.160;2024-02-14T01:43:43;5.85;;;1.80;;
140;SDS011;65;48.778;9.160;2024-02-14T01:46:29;6.88;;;1.77;;
140;SDS011;65;48.778;9.160;2024-02-14T01:49:15;3.17;;;1.33;;
140;SDS011;65;48.778;9.160;2024-02-14T01:52:02;6.85;;;1.80;;
140;SDS011;65;48.778;9.160;2024-02-14T01:54:48;3.90;;;1.60;;
140;SDS011;65;48.778;9.160;2024-02-14T01:57:34;8.60;;;1.75;;
140;SDS011;65;48.778;9.160;2024-02-14T02:00:20;7.93;;;1.60;;
140;SDS011;65;48.778;9.160;2024-02-14T02:03:07;3.50;;;1.58;;
140;SDS011;65;48.778;9.160;2024-02-14T02:05:53;3.45;;;1.40;;
140;SDS011;65;48.778;9.160;2024-02-14T02:08:39;4.10;;;1.90;;
140;SDS011;65;48.778;9.160;2024-02-14T02:11:26;4.65;;;1.65;;
140;SDS011;65;48.778;9.160;2024-02-14T02:14:12;3.80;;;1.58;;
140;SDS011;65;48.778;9.160;2024-02-14T02:16:58;2.58;;;1.40;;
140;SDS011;65;48.778;9.160;2024-02-14T02:19:44;2.47;;;1.42;;
140;SDS011;65;48.778;9.160;2024-02-14T02:22:32;2.40;;;1.17;;
140;SDS011;65;48.778;9.160;2024-02-14T02:25:23;5.85;;;1.85;;
140;SDS011;65;48.778;9.160;2024-02-14T02:28:10;3.03;;;1.27;;
140;SDS011;65;48.778;9.160;2024-02-14T02:30:55;1.77;;;1.30;;
140;SDS011;65;48.778;9.160;2024-02-14T02:33:41;6.88;;;1.55;;
140;SDS011;65;48.778;9.160;2024-02-14T02:36:28;3.53;;;1.42;;
140;SDS011;65;48.778;9.160;2024-02-14T02:39:15;2.75;;;1.38;;
140;SDS011;65;48.778;9.160;2024-02-14T02:42:02;3.15;;;1.40;;
140;SDS011;65;48.778;9.160;2024-02-14T02:44:49;3.60;;;1.67;;
140;SDS011;65;48.778;9.160;2024-02-14T02:47:36;2.58;;;1.40;;
140;SDS011;65;48.778;9.160;2024-02-14T02:50:21;2.33;;;1.27;;
140;SDS011;65;48.778;9.160;2024-02-14T02:53:07;4.57;;;1.52;;
140;SDS011;65;48.778;9.160;2024-02-14T02:55:53;2.95;;;1.50;;
140;SDS011;65;48.778;9.160;2024-02-14T02:58:39;6.28;;;2.03;;
140;SDS011;65;48.778;9.160;2024-02-14T03:01:25;3.85;;;1.88;;
140;SDS011;65;48.778;9.160;2024-02-14T03:04:13;3.63;;;1.85;;
140;SDS011;65;48.778;9.160;2024-02-14T03:07:00;3.78;;;1.52;;
140;SDS011;65;48.778;9.160;2024-02-14T03:09:49;3.90;;;1.85;;
140;SDS011;65;48.778;9.160;2024-02-14T03:12:35;4.97;;;2.00;;
140;SDS011;65;48.778;9.160;2024-02-14T03:15:20;5.07;;;1.70;;
140;SDS011;65;48.778;9.160;2024-02-14T03:18:06;4.60;;;1.90;;
140;SDS011;65;48.778;9.160;2024-02-14T03:20:54;3.70;;;1.60;;
140;SDS011;65;48.778;9.160;2024-02-14T03:23:41;5.50;;;1.70;;
140;SDS011;65;48.778;9.160;2024-02-14T03:26:27;3.55;;;1.80;;
140;SDS011;65;48.778;9.160;2024-02-14T03:29:13;4.72;;;1.90;;
140;SDS011;65;48.778;9.160;2024-02-14T03:31:59;3.47;;;1.60;;
140;SDS011;65;48.778;9.160;2024-02-14T03:34:49;2.95;;;1.40;;
140;SDS011;65;48.778;9.160;2024-02-14T03:37:35;2.38;;;1.40;;
140;SDS011;65;48.778;9.160;2024-02-14T03:40:22;4.97;;;1.48;;
140;SDS011;65;48.778;9.160;2024-02-14T03:43:09;3.78;;;1.67;;
140;SDS011;65;48.778;9.160;2024-02-14T03:45:57;2.47;;;1.48;;
140;SDS011;65;48.778;9.160;2024-02-14T03:48:45;3.80;;;1.63;;
140;SDS011;65;48.778;9.160;2024-02-14T03:51:33;2.45;;;1.60;;
140;SDS011;65;48.778;9.160;2024-02-14T03:54:19;2.72;;;1.52;;
140;SDS011;65;48.778;9.160;2024-02-14T03:57:04;2.97;;;1.60;;
140;SDS011;65;48.778;9.160;2024-02-14T03:59:53;3.67;;;1.70;;
140;SDS011;65;48.778;9.160;2024-02-14T04:02:43;5.05;;;1.65;;
140;SDS011;65;48.778;9.160;2024-02-14T04:05:28;3.97;;;1.80;;
140;SDS011;65;48.778;9.160;2024-02-14T04:08:14;4.63;;;1.70;;
140;SDS011;65;48.778;9.160;2024-02-14T04:11:00;2.28;;;1.42;;
140;SDS011;65;48.778;9.160;2024-02-14T04:13:46;6.60;;;1.95;;
140;SDS011;65;48.778;9.160;2024-02-14T04:16:31;3.45;;;1.55;;
140;SDS011;65;48.778;9.160;2024-02-14T04:19:17;2.17;;;1.30;;
140;SDS011;65;48.778;9.160;2024-02-14T04:22:03;2.92;;;1.63;;
140;SDS011;65;48.778;9.160;2024-02-14T04:24:49;1.52;;;1.10;;
140;SDS011;65;48.778;9.160;2024-02-14T04:27:34;2.30;;;1.40;;
140;SDS011;65;48.778;9.160;2024-02-14T04:30:20;7.85;;;1.63;;
140;SDS011;65;48.778;9.160;2024-02-14T04:33:06;2.75;;;1.42;;
140;SDS011;65;48.778;9.160;2024-02-14T04:35:53;2.85;;;1.02;;
140;SDS011;65;48.778;9.160;2024-02-14T04:38:39;3.53;;;1.42;;
140;SDS011;65;48.778;9.160;2024-02-14T04:41:26;3.83;;;1.85;;
140;SDS011;65;48.778;9.160;2024-02-14T04:44:12;1.45;;;1.25;;
140;SDS011;65;48.778;9.160;2024-02-14T04:46:57;2.72;;;1.45;;
140;SDS011;65;48.778;9.160;2024-02-14T04:49:44;2.90;;;1.30;;
140;SDS011;65;48.778;9.160;2024-02-14T04:52:30;2.53;;;1.10;;
140;SDS011;65;48.778;9.160;2024-02-14T04:55:15;3.45;;;1.20;;
140;SDS011;65;48.778;9.160;2024-02-14T04:58:01;2.83;;;1.33;;
140;SDS011;65;48.778;9.160;2024-02-14T05:00:47;6.70;;;1.58;;
140;SDS011;65;48.778;9.160;2024-02-14T05:03:33;2.42;;;1.42;;
140;SDS011;65;48.778;9.160;2024-02-14T05:06:19;3.83;;;1.65;;
140;SDS011;65;48.778;9.160;2024-02-14T05:09:05;3.65;;;1.40;;
140;SDS011;65;48.778;9.160;2024-02-14T05:11:50;3.65;;;1.85;;
140;SDS011;65;48.778;9.160;2024-02-14T05:14:39;1.73;;;1.00;;
140;SDS011;65;48.778;9.160;2024-02-14T05:17:25;3.55;;;1.65;;
140;SDS011;65;48.778;9.160;2024-02-14T05:20:11;2.97;;;1.52;;
140;SDS011;65;48.778;9.160;2024-02-14T05:22:57;3.53;;;1.67;;
140;SDS011;65;48.778;9.160;2024-02-14T05:25:43;4.75;;;2.20;;
140;SDS011;65;48.778;9.160;2024-02-14T05:28:29;3.35;;;1.27;;
140;SDS011;65;48.778;9.160;2024-02-14T05:31:16;5.85;;;1.35;;
140;SDS011;65;48.778;9.160;2024-02-14T05:34:01;4.10;;;1.30;;
140;SDS011;65;48.778;9.160;2024-02-14T05:36:48;3.08;;;1.58;;
140;SDS011;65;48.778;9.160;2024-02-14T05:39:40;2.42;;;1.45;;
140;SDS011;65;48.778;9.160;2024-02-14T05:42:26;2.50;;;1.45;;
140;SDS011;65;48.778;9.160;2024-02-14T05:45:12;6.55;;;1.63;;
140;SDS011;65;48.778;9.160;2024-02-14T05:47:57;4.13;;;1.48;;
140;SDS011;65;48.778;9.160;2024-02-14T05:50:43;2.65;;;1.55;;
140;SDS011;65;48.778;9.160;2024-02-14T05:53:29;3.30;;;1.55;;
140;SDS011;65;48.778;9.160;2024-02-14T05:56:15;1.92;;;1.02;;
140;SDS011;65;48.778;9.160;2024-02-14T05:59:01;1.58;;;1.10;;
140;SDS011;65;48.778;9.160;2024-02-14T06:01:46;2.75;;;1.33;;
140;SDS011;65;48.778;9.160;2024-02-14T06:04:32;4.30;;;1.60;;
140;SDS011;65;48.778;9.160;2024-02-14T06:07:18;2.80;;;1.60;;
140;SDS011;65;48.778;9.160;2024-02-14T06:10:03;2.90;;;1.40;;
140;SDS011;65;48.778;9.160;2024-02-14T06:12:51;1.65;;;1.08;;
140;SDS011;65;48.778;9.160;2024-02-14T06:15:37;2.67;;;1.50;;
140;SDS011;65;48.778;9.160;2024-02-14T06:18:23;3.20;;;1.30;;
140;SDS011;65;48.778;9.160;2024-02-14T06:21:09;2.00;;;1.23;;
140;SDS011;65;48.778;9.160;2024-02-14T06:23:55;2.40;;;1.40;;
140;SDS011;65;48.778;9.160;2024-02-14T06:26:41;2.20;;;1.13;;
140;SDS011;65;48.778;9.160;2024-02-14T06:29:26;2.80;;;1.40;;
140;SDS011;65;48.778;9.160;2024-02-14T06:32:12;2.60;;;1.48;;
140;SDS011;65;48.778;9.160;2024-02-14T06:34:59;5.80;;;1.48;;
140;SDS011;65;48.778;9.160;2024-02-14T06:37:45;2.65;;;1.40;;
140;SDS011;65;48.778;9.160;2024-02-14T06:40:31;2.50;;;1.15;;
140;SDS011;65;48.778;9.160;2024-02-14T06:43:17;3.17;;;1.45;;
140;SDS011;65;48.778;9.160;2024-02-14T06:46:02;4.45;;;1.08;;
140;SDS011;65;48.778;9.160;2024-02-14T06:48:48;1.88;;;1.02;;
140;SDS011;65;48.778;9.160;2024-02-14T06:51:34;3.17;;;1.60;;
140;SDS011;65;48.778;9.160;2024-02-14T06:54:20;1.17;;;1.02;;
140;SDS011;65;48.778;9.160;2024-02-14T06:57:06;3.83;;;1.45;;
140;SDS011;65;48.778;9.160;2024-02-14T06:59:52;1.98;;;1.20;;
140;SDS011;65;48.778;9.160;2024-02-14T07:02:38;2.00;;;1.23;;
140;SDS011;65;48.778;9.160;2024-02-14T07:05:24;6.10;;;1.35;;
140;SDS011;65;48.778;9.160;2024-02-14T07:08:11;3.15;;;1.55;;
140;SDS011;65;48.778;9.160;2024-02-14T07:10:57;1.92;;;1.02;;
140;SDS011;65;48.778;9.160;2024-02-14T07:13:43;2.20;;;1.20;;
140;SDS011;65;48.778;9.160;2024-02-14T07:16:29;4.78;;;1.60;;
140;SDS011;65;48.778;9.160;2024-02-14T07:19:15;2.67;;;1.45;;
140;SDS011;65;48.778;9.160;2024-02-14T07:22:01;2.67;;;1.52;;
140;SDS011;65;48.778;9.160;2024-02-14T07:24:46;2.33;;;1.15;;
140;SDS011;65;48.778;9.160;2024-02-14T07:27:33;3.25;;;1.55;;
140;SDS011;65;48.778;9.160;2024-02-14T07:30:18;5.88;;;1.40;;
140;SDS011;65;48.778;9.160;2024-02-14T07:33:04;3.33;;;1.13;;
140;SDS011;65;48.778;9.160;2024-02-14T07:35:50;4.07;;;1.35;;
140;SDS011;65;48.778;9.160;2024-02-14T07:38:36;3.05;;;1.13;;
140;SDS011;65;48.778;9.160;2024-02-14T07:41:22;3.80;;;1.17;;
140;SDS011;65;48.778;9.160;2024-02-14T07:44:08;2.50;;;0.93;;
140;SDS011;65;48.778;9.160;2024-02-14T07:46:53;2.58;;;1.08;;
140;SDS011;65;48.778;9.160;2024-02-14T07:49:39;1.65;;;0.75;;
140;SDS011;65;48.778;9.160;2024-02-14T07:52:26;1.58;;;1.00;;
140;SDS011;65;48.778;9.160;2024-02-14T07:55:12;4.05;;;1.20;;
140;SDS011;65;48.778;9.160;2024-02-14T07:57:58;2.63;;;1.20;;
140;SDS011;65;48.778;9.160;2024-02-14T08:00:45;2.95;;;1.45;;
140;SDS011;65;48.778;9.160;2024-02-14T08:03:30;4.13;;;1.90;;
140;SDS011;65;48.778;9.160;2024-02-14T08:06:17;4.90;;;1.90;;
140;SDS011;65;48.778;9.160;2024-02-14T08:09:03;3.60;;;1.42;;
140;SDS011;65;48.778;9.160;2024-02-14T08:11:51;2.22;;;1.30;;
140;SDS011;65;48.778;9.160;2024-02-14T08:14:38;4.07;;;1.58;;
140;SDS011;65;48.778;9.160;2024-02-14T08:17:24;3.25;;;1.17;;
140;SDS011;65;48.778;9.160;2024-02-14T08:20:10;3.45;;;1.48;;
140;SDS011;65;48.778;9.160;2024-02-14T08:22:56;3.65;;;1.40;;
140;SDS011;65;48.778;9.160;2024-02-14T08:25:41;4.60;;;2.00;;
140;SDS011;65;48.778;9.160;2024-02-14T08:28:27;3.75;;;1.98;;
140;SDS011;65;48.778;9.160;2024-02-14T08:31:13;4.35;;;2.10;;
140;SDS011;65;48.778;9.160;2024-02-14T08:33:58;6.45;;;2.30;;
140;SDS011;65;48.778;9.160;2024-02-14T08:36:44;5.93;;;2.35;;
140;SDS011;65;48.778;9.160;2024-02-14T08:39:30;5.32;;;2.25;;
140;SDS011;65;48.778;9.160;2024-02-14T08:42:16;5.97;;;2.22;;
140;SDS011;65;48.778;9.160;2024-02-14T08:45:02;5.97;;;2.20;;
140;SDS011;65;48.778;9.160;2024-02-14T08:47:48;3.53;;;1.45;;
140;SDS011;65;48.778;9.160;2024-02-14T08:50:34;2.15;;;1.40;;
140;SDS011;65;48.778;9.160;2024-02-14T08:53:20;2.75;;;1.30;;
140;SDS011;65;48.778;9.160;2024-02-14T08:56:07;3.55;;;1.38;;
140;SDS011;65;48.778;9.160;2024-02-14T08:58:53;2.65;;;1.25;;
140;SDS011;65;48.778;9.160;2024-02-14T09:01:39;2.97;;;1.20;;
140;SDS011;65;48.778;9.160;2024-02-14T09:04:24;5.07;;;1.67;;
140;SDS011;65;48.778;9.160;2024-02-14T09:07:10;2.28;;;1.15;;
140;SDS011;65;48.778;9.160;2024-02-14T09:09:56;3.53;;;1.60;;
140;SDS011;65;48.778;9.160;2024-02-14T09:12:42;3.47;;;1.08;;
140;SDS011;65;48.778;9.160;2024-02-14T09:15:28;3.28;;;0.98;;
140;SDS011;65;48.778;9.160;2024-02-14T09:18:14;6.07;;;1.92;;
140;SDS011;65;48.778;9.160;2024-02-14T09:21:01;3.92;;;1.27;;
140;SDS011;65;48.778;9.160;2024-02-14T09:23:50;1.77;;;0.90;;
140;SDS011;65;48.778;9.160;2024-02-14T09:26:37;1.75;;;1.00;;
140;SDS011;65;48.778;9.160;2024-02-14T09:29:23;2.97;;;1.48;;
140;SDS011;65;48.778;9.160;2024-02-14T09:32:09;1.77;;;1.05;;
140;SDS011;65;48.778;9.160;2024-02-14T09:34:54;1.77;;;1.13;;
140;SDS011;65;48.778;9.160;2024-02-14T09:37:40;1.63;;;1.00;;
140;SDS011;65;48.778;9.160;2024-02-14T09:40:26;4.70;;;1.52;;
140;SDS011;65;48.778;9.160;2024-02-14T09:43:24;2.42;;;1.27;;
140;SDS011;65;48.778;9.160;2024-02-14T09:46:20;3.13;;;1.25;;
140;SDS011;65;48.778;9.160;2024-02-14T09:49:10;2.50;;;1.08;;
140;SDS011;65;48.778;9.160;2024-02-14T09:51:57;1.73;;;1.00;;
140;SDS011;65;48.778;9.160;2024-02-14T09:54:46;2.90;;;1.20;;
140;SDS011;65;48.778;9.160;2024-02-14T09:57:32;2.78;;;1.30;;
140;SDS011;65;48.778;9.160;2024-02-14T10:00:18;2.97;;;0.85;;
140;SDS011;65;48.778;9.160;2024-02-14T10:03:04;2.05;;;0.90;;
140;SDS011;65;48.778;9.160;2024-02-14T10:05:51;1.40;;;0.85;;
140;SDS011;65;48.778;9.160;2024-02-14T10:08:37;2.05;;;1.08;;
140;SDS011;65;48.778;9.160;2024-02-14T10:11:26;1.95;;;0.98;;
140;SDS011;65;48.778;9.160;2024-02-14T10:14:12;1.80;;;1.10;;
140;SDS011;65;48.778;9.160;2024-02-14T10:16:58;2.35;;;0.82;;
140;SDS011;65;48.778;9.160;2024-02-14T10:19:54;1.83;;;1.10;;
140;SDS011;65;48.778;9.160;2024-02-14T10:22:41;1.23;;;0.73;;
140;SDS011;65;48.778;9.160;2024-02-14T10:25:27;2.45;;;0.90;;
140;SDS011;65;48.778;9.160;2024-02-14T10:28:12;1.75;;;1.13;;
140;SDS011;65;48.778;9.160;2024-02-14T10:30:58;1.17;;;0.80;;
140;SDS011;65;48.778;9.160;2024-02-14T10:33:44;1.83;;;0.68;;
140;SDS011;65;48.778;9.160;2024-02-14T10:36:30;2.03;;;0.93;;
140;SDS011;65;48.778;9.160;2024-02-14T10:39:19;1.17;;;0.93;;
140;SDS011;65;48.778;9.160;2024-02-14T10:42:06;1.58;;;0.90;;
140;SDS011;65;48.778;9.160;2024-02-14T10:44:52;0.65;;;0.57;;
140;SDS011;65;48.778;9.160;2024-02-14T10:47:39;1.70;;;0.93;;
140;SDS011;65;48.778;9.160;2024-02-14T10:50:28;2.13;;;0.90;;
140;SDS011;65;48.778;9.160;2024-02-14T10:53:18;0.52;;;0.47;;
140;SDS011;65;48.778;9.160;2024-02-14T10:56:05;1.98;;;0.82;;
140;SDS011;65;48.778;9.160;2024-02-14T10:58:52;0.98;;;0.77;;
140;SDS011;65;48.778;9.160;2024-02-14T11:01:44;2.13;;;0.75;;
140;SDS011;65;48.778;9.160;2024-02-14T11:04:31;1.45;;;0.90;;
140;SDS011;65;48.778;9.160;2024-02-14T11:07:17;1.95;;;0.80;;
140;SDS011;65;48.778;9.160;2024-02-14T11:12:50;1.17;;;0.77;;
140;SDS011;65;48.778;9.160;2024-02-14T11:15:36;1.80;;;1.05;;
140;SDS011;65;48.778;9.160;2024-02-14T11:18:26;1.20;;;0.88;;
140;SDS011;65;48.778;9.160;2024-02-14T11:21:16;2.22;;;1.00;;
140;SDS011;65;48.778;9.160;2024-02-14T11:24:05;4.90;;;1.60;;
140;SDS011;65;48.778;9.160;2024-02-14T11:26:55;1.30;;;0.80;;
140;SDS011;65;48.778;9.160;2024-02-14T11:29:51;1.63;;;0.70;;
140;SDS011;65;48.778;9.160;2024-02-14T11:32:38;1.60;;;0.80;;
140;SDS011;65;48.778;9.160;2024-02-14T11:35:27;1.92;;;0.90;;
140;SDS011;65;48.778;9.160;2024-02-14T11:38:13;1.67;;;1.00;;
140;SDS011;65;48.778;9.160;2024-02-14T11:40:59;2.85;;;0.88;;
140;SDS011;65;48.778;9.160;2024-02-14T11:43:51;1.27;;;0.82;;
140;SDS011;65;48.778;9.160;2024-02-14T11:46:37;2.05;;;0.98;;
140;SDS011;65;48.778;9.160;2024-02-14T11:49:23;1.75;;;0.80;;
140;SDS011;65;48.778;9.160;2024-02-14T11:52:11;4.30;;;0.93;;
140;SDS011;65;48.778;9.160;2024-02-14T11:54:57;1.33;;;0.77;;
140;SDS011;65;48.778;9.160;2024-02-14T11:57:45;0.70;;;0.70;;
140;SDS011;65;48.778;9.160;2024-02-14T12:00:33;0.65;;;0.65;;
140;SDS011;65;48.778;9.160;2024-02-14T12:03:22;1.92;;;0.77;;
140;SDS011;65;48.778;9.160;2024-02-14T12:06:09;1.35;;;0.80;;
140;SDS011;65;48.778;9.160;2024-02-14T12:08:55;0.88;;;0.68;;
140;SDS011;65;48.778;9.160;2024-02-14T12:11:41;1.17;;;0.75;;
140;SDS011;65;48.778;9.160;2024-02-14T12:14:32;1.00;;;0.63;;
140;SDS011;65;48.778;9.160;2024-02-14T12:17:18;1.42;;;0.90;;
140;SDS011;65;48.778;9.160;2024-02-14T12:20:08;1.00;;;0.63;;
140;SDS011;65;48.778;9.160;2024-02-14T12:22:55;0.70;;;0.43;;
140;SDS011;65;48.778;9.160;2024-02-14T12:25:42;0.73;;;0.47;;
140;SDS011;65;48.778;9.160;2024-02-14T12:28:29;1.42;;;0.68;;
140;SDS011;65;48.778;9.160;2024-02-14T12:31:23;5.72;;;1.00;;
140;SDS011;65;48.778;9.160;2024-02-14T12:34:10;1.88;;;0.80;;
140;SDS011;65;48.778;9.160;2024-02-14T12:36:56;2.17;;;0.80;;
140;SDS011;65;48.778;9.160;2024-02-14T12:39:42;2.63;;;0.90;;
140;SDS011;65;48.778;9.160;2024-02-14T12:42:28;0.73;;;0.60;;
140;SDS011;65;48.778;9.160;2024-02-14T12:45:14;0.50;;;0.50;;
140;SDS011;65;48.778;9.160;2024-02-14T12:48:00;1.23;;;0.50;;
140;SDS011;65;48.778;9.160;2024-02-14T12:50:46;0.73;;;0.55;;
140;SDS011;65;48.778;9.160;2024-02-14T12:53:34;0.85;;;0.60;;
140;SDS011;65;48.778;9.160;2024-02-14T12:56:20;0.52;;;0.38;;
140;SDS011;65;48.778;9.160;2024-02-14T12:59:06;0.75;;;0.50;;
140;SDS011;65;48.778;9.160;2024-02-14T13:01:52;1.27;;;0.75;;
140;SDS011;65;48.778;9.160;2024-02-14T13:04:38;0.93;;;0.63;;
140;SDS011;65;48.778;9.160;2024-02-14T13:07:24;1.27;;;0.77;;
140;SDS011;65;48.778;9.160;2024-02-14T13:10:11;1.08;;;0.90;;
140;SDS011;65;48.778;9.160;2024-02-14T13:12:57;1.23;;;0.70;;
140;SDS011;65;48.778;9.160;2024-02-14T13:15:43;1.83;;;0.73;;
140;SDS011;65;48.778;9.160;2024-02-14T13:18:30;2.95;;;0.70;;
140;SDS011;65;48.778;9.160;2024-02-14T13:21:15;0.93;;;0.75;;
140;SDS011;65;48.778;9.160;2024-02-14T13:24:02;0.40;;;0.40;;
140;SDS011;65;48.778;9.160;2024-02-14T13:26:49;1.13;;;0.52;;
140;SDS011;65;48.778;9.160;2024-02-14T13:29:35;0.30;;;0.30;;
140;SDS011;65;48.778;9.160;2024-02-14T13:32:20;0.77;;;0.40;;
140;SDS011;65;48.778;9.160;2024-02-14T13:35:06;1.13;;;0.60;;
140;SDS011;65;48.778;9.160;2024-02-14T13:37:53;0.85;;;0.50;;
140;SDS011;65;48.778;9.160;2024-02-14T13:40:40;0.50;;;0.50;;
140;SDS011;65;48.778;9.160;2024-02-14T13:43:25;0.55;;;0.40;;
140;SDS011;65;48.778;9.160;2024-02-14T13:46:11;0.45;;;0.45;;
140;SDS011;65;48.778;9.160;2024-02-14T13:48:57;0.85;;;0.52;;
140;SDS011;65;48.778;9.160;2024-02-14T13:51:43;0.77;;;0.50;;
140;SDS011;65;48.778;9.160;2024-02-14T13:54:29;0.43;;;0.40;;
140;SDS011;65;48.778;9.160;2024-02-14T13:57:15;0.52;;;0.52;;
140;SDS011;65;48.778;9.160;2024-02-14T14:00:00;0.30;;;0.30;;
140;SDS011;65;48.778;9.160;2024-02-14T14:02:46;0.63;;;0.47;;
140;SDS011;65;48.778;9.160;2024-02-14T14:05:32;1.85;;;0.80;;
140;SDS011;65;48.778;9.160;2024-02-14T14:08:18;0.98;;;0.60;;
140;SDS011;65;48.778;9.160;2024-02-14T14:11:04;0.60;;;0.60;;
140;SDS011;65;48.778;9.160;2024-02-14T14:13:50;0.30;;;0.20;;
140;SDS011;65;48.778;9.160;2024-02-14T14:16:36;0.73;;;0.47;;
140;SDS011;65;48.778;9.160;2024-02-14T14:19:22;0.30;;;0.30;;
140;SDS011;65;48.778;9.160;2024-02-14T14:22:07;0.08;;;0.08;;
140;SDS011;65;48.778;9.160;2024-02-14T14:24:54;0.55;;;0.22;;
140;SDS011;65;48.778;9.160;2024-02-14T14:27:40;0.85;;;0.40;;
140;SDS011;65;48.778;9.160;2024-02-14T14:30:26;0.70;;;0.52;;
140;SDS011;65;48.778;9.160;2024-02-14T14:33:12;0.30;;;0.30;;
140;SDS011;65;48.778;9.160;2024-02-14T14:35:58;0.73;;;0.60;;
140;SDS011;65;48.778;9.160;2024-02-14T14:38:43;2.00;;;0.80;;
140;SDS011;65;48.778;9.160;2024-02-14T14:41:29;0.55;;;0.43;;
140;SDS011;65;48.778;9.160;2024-02-14T14:44:16;0.25;;;0.25;;
140;SDS011;65;48.778;9.160;2024-02-14T14:47:02;1.58;;;0.60;;
140;SDS011;65;48.778;9.160;2024-02-14T14:49:48;1.77;;;0.73;;
140;SDS011;65;48.778;9.160;2024-02-14T14:52:34;1.30;;;0.90;;
140;SDS011;65;48.778;9.160;2024-02-14T14:55:20;0.82;;;0.70;;
140;SDS011;65;48.778;9.160;2024-02-14T14:58:12;0.85;;;0.63;;
140;SDS011;65;48.778;9.160;2024-02-14T15:00:58;0.55;;;0.45;;
140;SDS011;65;48.778;9.160;2024-02-14T15:03:44;0.98;;;0.60;;
140;SDS011;65;48.778;9.160;2024-02-14T15:06:30;1.27;;;0.70;;
140;SDS011;65;48.778;9.160;2024-02-14T15:09:16;1.50;;;0.40;;
140;SDS011;65;48.778;9.160;2024-02-14T15:12:02;2.30;;;1.27;;
140;SDS011;65;48.778;9.160;2024-02-14T15:14:48;1.08;;;0.65;;
140;SDS011;65;48.778;9.160;2024-02-14T15:17:34;1.27;;;0.63;;
140;SDS011;65;48.778;9.160;2024-02-14T15:20:20;1.13;;;0.75;;
140;SDS011;65;48.778;9.160;2024-02-14T15:23:06;1.23;;;0.63;;
140;SDS011;65;48.778;9.160;2024-02-14T15:25:52;0.73;;;0.68;;
140;SDS011;65;48.778;9.160;2024-02-14T15:28:47;0.80;;;0.60;;
140;SDS011;65;48.778;9.160;2024-02-14T15:31:41;0.57;;;0.38;;
140;SDS011;65;48.778;9.160;2024-02-14T15:34:45;0.70;;;0.55;;
140;SDS011;65;48.778;9.160;2024-02-14T15:37:31;0.68;;;0.45;;
140;SDS011;65;48.778;9.160;2024-02-14T15:40:16;1.50;;;0.75;;
140;SDS011;65;48.778;9.160;2024-02-14T15:43:02;0.70;;;0.63;;
140;SDS011;65;48.778;9.160;2024-02-14T15:45:49;2.33;;;0.80;;
140;SDS011;65;48.778;9.160;2024-02-14T15:48:34;1.05;;;0.70;;
140;SDS011;65;48.778;9.160;2024-02-14T15:51:20;4.30;;;0.52;;
140;SDS011;65;48.778;9.160;2024-02-14T15:54:08;2.17;;;1.08;;
140;SDS011;65;48.778;9.160;2024-02-14T15:56:55;1.33;;;0.70;;
140;SDS011;65;48.778;9.160;2024-02-14T15:59:40;2.42;;;1.00;;
140;SDS011;65;48.778;9.160;2024-02-14T16:02:26;1.83;;;1.10;;
140;SDS011;65;48.778;9.160;2024-02-14T16:05:12;2.40;;;1.23;;
140;SDS011;65;48.778;9.160;2024-02-14T16:07:58;1.23;;;0.70;;
140;SDS011;65;48.778;9.160;2024-02-14T16:10:44;2.47;;;1.17;;
140;SDS011;65;48.778;9.160;2024-02-14T16:13:30;1.90;;;1.10;;
140;SDS011;65;48.778;9.160;2024-02-14T16:16:16;2.50;;;1.10;;
140;SDS011;65;48.778;9.160;2024-02-14T16:19:01;2.55;;;0.95;;
140;SDS011;65;48.778;9.160;2024-02-14T16:21:48;0.95;;;0.80;;
140;SDS011;65;48.778;9.160;2024-02-14T16:24:34;2.13;;;1.05;;
140;SDS011;65;48.778;9.160;2024-02-14T16:27:20;1.85;;;0.82;;
140;SDS011;65;48.778;9.160;2024-02-14T16:30:05;2.28;;;1.00;;
140;SDS011;65;48.778;9.160;2024-02-14T16:32:52;0.88;;;0.55;;
140;SDS011;65;48.778;9.160;2024-02-14T16:35:37;0.82;;;0.75;;
140;SDS011;65;48.778;9.160;2024-02-14T16:38:24;1.42;;;1.02;;
140;SDS011;65;48.778;9.160;2024-02-14T16:41:09;1.10;;;0.80;;
140;SDS011;65;48.778;9.160;2024-02-14T16:43:56;0.70;;;0.70;;
140;SDS011;65;48.778;9.160;2024-02-14T16:46:43;1.55;;;1.00;;
140;SDS011;65;48.778;9.160;2024-02-14T16:49:29;1.48;;;0.85;;
140;SDS011;65;48.778;9.160;2024-02-14T16:52:14;1.55;;;0.77;;
140;SDS011;65;48.778;9.160;2024-02-14T16:55:00;2.05;;;0.85;;
140;SDS011;65;48.778;9.160;2024-02-14T16:57:46;1.20;;;0.73;;
140;SDS011;65;48.778;9.160;2024-02-14T17:00:32;2.50;;;0.98;;
140;SDS011;65;48.778;9.160;2024-02-14T17:03:18;0.80;;;0.80;;
140;SDS011;65;48.778;9.160;2024-02-14T17:06:04;1.73;;;1.17;;
140;SDS011;65;48.778;9.160;2024-02-14T17:08:50;1.85;;;0.82;;
140;SDS011;65;48.778;9.160;2024-02-14T17:11:35;1.48;;;0.90;;
140;SDS011;65;48.778;9.160;2024-02-14T17:14:22;1.60;;;0.93;;
140;SDS011;65;48.778;9.160;2024-02-14T17:17:09;2.38;;;1.20;;
140;SDS011;65;48.778;9.160;2024-02-14T17:19:55;3.15;;;1.05;;
140;SDS011;65;48.778;9.160;2024-02-14T17:22:41;1.58;;;0.75;;
140;SDS011;65;48.778;9.160;2024-02-14T17:25:27;2.10;;;0.90;;
140;SDS011;65;48.778;9.160;2024-02-14T17:28:12;1.45;;;0.85;;
140;SDS011;65;48.778;9.160;2024-02-14T17:30:59;1.38;;;0.90;;
140;SDS011;65;48.778;9.160;2024-02-14T17:33:45;1.35;;;0.90;;
140;SDS011;65;48.778;9.160;2024-02-14T17:36:32;1.13;;;0.80;;
140;SDS011;65;48.778;9.160;2024-02-14T17:39:18;1.50;;;0.80;;
140;SDS011;65;48.778;9.160;2024-02-14T17:42:04;0.85;;;0.70;;
140;SDS011;65;48.778;9.160;2024-02-14T17:44:50;1.23;;;0.93;;
140;SDS011;65;48.778;9.160;2024-02-14T17:47:35;3.15;;;0.95;;
140;SDS011;65;48.778;9.160;2024-02-14T17:50:21;1.63;;;0.93;;
140;SDS011;65;48.778;9.160;2024-02-14T17:53:07;1.08;;;0.82;;
140;SDS011;65;48.778;9.160;2024-02-14T17:55:53;1.48;;;1.00;;
140;SDS011;65;48.778;9.160;2024-02-14T17:58:39;1.65;;;0.93;;
140;SDS011;65;48.778;9.160;2024-02-14T18:01:25;1.20;;;0.90;;
140;SDS011;65;48.778;9.160;2024-02-14T18:04:11;1.60;;;0.95;;
140;SDS011;65;48.778;9.160;2024-02-14T18:06:58;1.60;;;0.85;;
140;SDS011;65;48.778;9.160;2024-02-14T18:09:44;3.80;;;0.98;;